Time;durP1;ratioP1;P1;durP2;ratioP2;P2;SDS_P1;SDS_P2;PMS_P1;PMS_P2;Temp;Humidity;BMP_temperature;BMP_pressure;BME280_temperature;BME280_humidity;BME280_pressure;Samples;Min_cycle;Max_cycle;Signal;HPM_P1;HPM_P2
2022/07/01 00:01:35;;;;;;;;;;;17.60;99.90;;;;;;5081686;27;36242;-61
2022/07/01 00:04:02;;;;;;;;;;;17.60;99.90;;;;;;5082435;27;37645;-61
2022/07/01 00:06:29;;;;;;;;;;;17.60;99.90;;;;;;5082812;27;38688;-61
2022/07/01 00:08:56;;;;;;;;;;;17.60;99.90;;;;;;5081762;27;38121;-61
2022/07/01 00:11:23;;;;;;;;;;;17.60;99.90;;;;;;5082414;27;36052;-61
2022/07/01 00:13:50;;;;;;;;;;;17.60;99.90;;;;;;5081724;27;39457;-61
2022/07/01 00:16:17;;;;;;;;;;;17.60;99.90;;;;;;5082304;28;37304;-61
2022/07/01 00:18:46;;;;;;;;;;;17.60;99.90;;;;;;5082553;27;37448;-61
2022/07/01 00:21:14;;;;;;;;;;;17.60;99.90;;;;;;5083503;28;35238;-61
2022/07/01 00:23:41;;;;;;;;;;;17.60;99.90;;;;;;5081538;27;36554;-61
2022/07/01 00:26:08;;;;;;;;;;;17.50;99.90;;;;;;5082523;27;38166;-61
2022/07/01 00:28:35;;;;;;;;;;;17.60;99.90;;;;;;5080814;27;36641;-61
2022/07/01 00:31:02;;;;;;;;;;;17.60;99.90;;;;;;5081746;27;36296;-61
2022/07/01 00:33:29;;;;;;;;;;;17.60;99.90;;;;;;5082790;28;37379;-61
2022/07/01 00:35:59;;;;;;;;;;;17.60;99.90;;;;;;5081216;27;38551;-61
2022/07/01 00:38:26;;;;;;;;;;;17.60;99.90;;;;;;5080862;27;38413;-61
2022/07/01 00:40:54;;;;;;;;;;;17.60;99.90;;;;;;5083402;27;36292;-61
2022/07/01 00:43:22;;;;;;;;;;;17.60;99.90;;;;;;5081713;27;37701;-61
2022/07/01 00:45:50;;;;;;;;;;;17.60;99.90;;;;;;5079921;27;38153;-61
2022/07/01 00:48:17;;;;;;;;;;;17.60;99.90;;;;;;5081650;28;36273;-61
2022/07/01 00:50:44;;;;;;;;;;;17.60;99.90;;;;;;5082620;28;36734;-61
2022/07/01 00:53:13;;;;;;;;;;;17.60;99.90;;;;;;5081558;27;36803;-61
2022/07/01 00:55:41;;;;;;;;;;;17.60;99.90;;;;;;5081790;27;39336;-61
2022/07/01 00:58:08;;;;;;;;;;;17.60;99.90;;;;;;5079808;27;37588;-61
2022/07/01 01:00:36;;;;;;;;;;;17.60;99.90;;;;;;5080076;27;37504;-61
2022/07/01 01:03:03;;;;;;;;;;;17.60;99.90;;;;;;5081088;27;38370;-60
2022/07/01 01:05:30;;;;;;;;;;;17.60;99.90;;;;;;5081326;27;38149;-61
2022/07/01 01:07:57;;;;;;;;;;;17.50;99.90;;;;;;5080790;27;38194;-61
2022/07/01 01:10:27;;;;;;;;;;;17.50;99.90;;;;;;5081242;28;36853;-61
2022/07/01 01:12:55;;;;;;;;;;;17.50;99.90;;;;;;5081190;27;38279;-61
2022/07/01 01:15:22;;;;;;;;;;;17.40;99.90;;;;;;5081682;28;40180;-61
2022/07/01 01:17:49;;;;;;;;;;;17.50;99.90;;;;;;5081636;27;36551;-61
2022/07/01 01:20:18;;;;;;;;;;;17.50;99.90;;;;;;5082596;27;36266;-61
2022/07/01 01:22:46;;;;;;;;;;;17.50;99.90;;;;;;5080925;27;37453;-61
2022/07/01 01:25:14;;;;;;;;;;;17.50;99.90;;;;;;5081763;27;39477;-61
2022/07/01 01:27:41;;;;;;;;;;;17.40;99.90;;;;;;5081986;28;38755;-61
2022/07/01 01:30:09;;;;;;;;;;;17.40;99.90;;;;;;5081986;27;36543;-61
2022/07/01 01:32:37;;;;;;;;;;;17.40;99.90;;;;;;5081330;27;37670;-61
2022/07/01 01:35:04;;;;;;;;;;;17.40;99.90;;;;;;5081235;27;38568;-61
2022/07/01 01:37:31;;;;;;;;;;;17.40;99.90;;;;;;5079391;27;36337;-61
2022/07/01 01:40:00;;;;;;;;;;;17.40;99.90;;;;;;5079041;27;39158;-61
2022/07/01 01:42:27;;;;;;;;;;;17.30;99.90;;;;;;5078668;27;37637;-61
2022/07/01 01:44:54;;;;;;;;;;;17.30;99.90;;;;;;5078933;27;37263;-61
2022/07/01 01:47:21;;;;;;;;;;;17.30;99.90;;;;;;5080552;27;37138;-61
2022/07/01 01:49:48;;;;;;;;;;;17.30;99.90;;;;;;5079530;27;36939;-61
2022/07/01 01:52:15;;;;;;;;;;;17.30;99.90;;;;;;5080969;28;37516;-61
2022/07/01 01:54:42;;;;;;;;;;;17.30;99.90;;;;;;5080414;27;38279;-61
2022/07/01 01:57:11;;;;;;;;;;;17.30;99.90;;;;;;5080846;27;37862;-61
2022/07/01 01:59:38;;;;;;;;;;;17.30;99.90;;;;;;5081071;27;35927;-61
2022/07/01 02:02:05;;;;;;;;;;;17.30;99.90;;;;;;5079805;27;38172;-61
2022/07/01 02:04:32;;;;;;;;;;;17.30;99.90;;;;;;5081839;27;38823;-60
2022/07/01 02:06:59;;;;;;;;;;;17.30;99.90;;;;;;5080011;27;37670;-61
2022/07/01 02:09:28;;;;;;;;;;;17.30;99.90;;;;;;5079504;27;36117;-61
2022/07/01 02:11:55;;;;;;;;;;;17.30;99.90;;;;;;5081569;27;36565;-61
2022/07/01 02:14:23;;;;;;;;;;;17.30;99.90;;;;;;5080681;27;38118;-61
2022/07/01 02:16:50;;;;;;;;;;;17.20;99.90;;;;;;5080134;27;38231;-61
2022/07/01 02:19:17;;;;;;;;;;;17.20;99.90;;;;;;5081389;28;38347;-61
2022/07/01 02:21:44;;;;;;;;;;;17.20;99.90;;;;;;5080270;27;37586;-61
2022/07/01 02:24:11;;;;;;;;;;;17.20;99.90;;;;;;5081909;27;38748;-61
2022/07/01 02:26:38;;;;;;;;;;;17.10;99.90;;;;;;5080831;27;37462;-61
2022/07/01 02:29:05;;;;;;;;;;;17.20;99.90;;;;;;5080663;28;35247;-60
2022/07/01 02:31:33;;;;;;;;;;;17.10;99.90;;;;;;5079755;27;38436;-61
2022/07/01 02:34:00;;;;;;;;;;;17.10;99.90;;;;;;5079413;27;38230;-61
2022/07/01 02:36:28;;;;;;;;;;;17.10;99.90;;;;;;5080610;27;36425;-61
2022/07/01 02:38:55;;;;;;;;;;;17.10;99.90;;;;;;5079033;27;36599;-61
2022/07/01 02:41:22;;;;;;;;;;;17.10;99.90;;;;;;5080587;27;37984;-61
2022/07/01 02:43:49;;;;;;;;;;;17.10;99.90;;;;;;5080233;27;38430;-61
2022/07/01 02:46:17;;;;;;;;;;;17.10;99.90;;;;;;5079861;28;37493;-61
2022/07/01 02:48:45;;;;;;;;;;;17.10;99.90;;;;;;5078098;27;36173;-60
2022/07/01 02:51:12;;;;;;;;;;;17.00;99.90;;;;;;5081823;27;37541;-61
2022/07/01 02:53:39;;;;;;;;;;;17.00;99.90;;;;;;5079395;27;36761;-61
2022/07/01 02:56:06;;;;;;;;;;;17.00;99.90;;;;;;5084423;27;37286;-61
2022/07/01 02:58:33;;;;;;;;;;;17.00;99.90;;;;;;5084161;27;36722;-61
2022/07/01 03:01:00;;;;;;;;;;;17.00;99.90;;;;;;5080436;28;37783;-61
2022/07/01 03:03:28;;;;;;;;;;;17.00;99.90;;;;;;5082086;27;38982;-61
2022/07/01 03:05:56;;;;;;;;;;;17.00;99.90;;;;;;5084207;27;37763;-61
2022/07/01 03:08:23;;;;;;;;;;;17.00;99.90;;;;;;5083513;27;37073;-61
2022/07/01 03:10:50;;;;;;;;;;;16.90;99.90;;;;;;5084063;27;37977;-60
2022/07/01 03:13:19;;;;;;;;;;;16.90;99.90;;;;;;5083796;28;38253;-61
2022/07/01 03:15:46;;;;;;;;;;;16.90;99.90;;;;;;5083200;27;37710;-61
2022/07/01 03:18:13;;;;;;;;;;;16.90;99.90;;;;;;5084253;27;35957;-61
2022/07/01 03:20:40;;;;;;;;;;;16.90;99.90;;;;;;5084278;27;38914;-61
2022/07/01 03:23:08;;;;;;;;;;;16.80;99.90;;;;;;5084150;28;36782;-61
2022/07/01 03:25:36;;;;;;;;;;;16.90;99.90;;;;;;5083791;27;39277;-61
2022/07/01 03:28:04;;;;;;;;;;;16.80;99.90;;;;;;5082422;27;36069;-61
2022/07/01 03:30:31;;;;;;;;;;;16.80;99.90;;;;;;5084123;27;38101;-61
2022/07/01 03:32:58;;;;;;;;;;;16.80;99.90;;;;;;5082922;27;37122;-61
2022/07/01 03:35:39;;;;;;;;;;;16.80;99.90;;;;;;5083455;27;38290;-61
2022/07/01 03:38:07;;;;;;;;;;;16.70;99.90;;;;;;5080846;27;37022;-61
2022/07/01 03:40:35;;;;;;;;;;;16.80;99.90;;;;;;5084485;27;38910;-61
2022/07/01 03:43:02;;;;;;;;;;;16.80;99.90;;;;;;5082444;27;38910;-61
2022/07/01 03:45:29;;;;;;;;;;;16.80;99.90;;;;;;5083121;27;36174;-61
2022/07/01 03:47:57;;;;;;;;;;;16.80;99.90;;;;;;5083442;27;37360;-61
2022/07/01 03:50:24;;;;;;;;;;;16.80;99.90;;;;;;5082761;27;37362;-61
2022/07/01 03:54:29;;;;;;;;;;;16.80;99.90;;;;;;5083014;28;37392;-61
2022/07/01 03:55:40;;;;;;;;;;;16.80;99.90;;;;;;5083211;28;38423;-60
2022/07/01 03:58:07;;;;;;;;;;;16.80;99.90;;;;;;5083314;27;37292;-61
2022/07/01 04:00:35;;;;;;;;;;;16.80;99.90;;;;;;5082878;28;39645;-61
2022/07/01 04:03:02;;;;;;;;;;;16.80;99.90;;;;;;5083401;27;39180;-61
2022/07/01 04:05:29;;;;;;;;;;;16.80;99.90;;;;;;5082206;27;36932;-61
2022/07/01 04:07:56;;;;;;;;;;;16.70;99.90;;;;;;5081857;27;36431;-60
2022/07/01 04:10:23;;;;;;;;;;;16.80;99.90;;;;;;5082534;27;37555;-61
2022/07/01 04:12:52;;;;;;;;;;;16.70;99.90;;;;;;5082802;27;38633;-61
2022/07/01 04:15:19;;;;;;;;;;;16.80;99.90;;;;;;5082224;27;38748;-61
2022/07/01 04:17:46;;;;;;;;;;;16.80;99.90;;;;;;5082997;27;35103;-61
2022/07/01 04:20:13;;;;;;;;;;;16.80;99.90;;;;;;5083915;28;37148;-60
2022/07/01 04:22:39;;;;;;;;;;;16.80;99.90;;;;;;5082689;27;37488;-61
2022/07/01 04:25:07;;;;;;;;;;;16.80;99.90;;;;;;5082407;27;37523;-61
2022/07/01 04:27:34;;;;;;;;;;;16.80;99.90;;;;;;5082339;27;35255;-60
2022/07/01 04:30:03;;;;;;;;;;;16.80;99.90;;;;;;5081522;27;37960;-61
2022/07/01 04:32:31;;;;;;;;;;;16.80;99.90;;;;;;5081207;27;39548;-61
2022/07/01 04:34:58;;;;;;;;;;;16.80;99.90;;;;;;5079507;27;38806;-61
2022/07/01 04:37:25;;;;;;;;;;;16.70;99.90;;;;;;5081446;27;36917;-60
2022/07/01 04:39:52;;;;;;;;;;;16.70;99.90;;;;;;5081877;27;38564;-60
2022/07/01 04:42:20;;;;;;;;;;;16.70;99.90;;;;;;5081883;28;37285;-61
2022/07/01 04:44:47;;;;;;;;;;;16.70;99.90;;;;;;5082225;27;36373;-61
2022/07/01 04:47:15;;;;;;;;;;;16.70;99.90;;;;;;5081753;27;36475;-60
2022/07/01 04:49:42;;;;;;;;;;;16.70;99.90;;;;;;5082943;27;38275;-61
2022/07/01 04:52:09;;;;;;;;;;;16.70;99.90;;;;;;5080901;27;37524;-61
2022/07/01 04:54:36;;;;;;;;;;;16.70;99.90;;;;;;5083101;27;37574;-60
2022/07/01 04:57:04;;;;;;;;;;;16.70;99.90;;;;;;5081793;28;36218;-61
2022/07/01 04:59:31;;;;;;;;;;;16.60;99.90;;;;;;5081999;27;38879;-60
2022/07/01 05:01:59;;;;;;;;;;;16.70;99.90;;;;;;5080425;28;38937;-60
2022/07/01 05:04:28;;;;;;;;;;;16.70;99.90;;;;;;5080488;27;40122;-60
2022/07/01 05:06:55;;;;;;;;;;;16.70;99.90;;;;;;5080872;27;36185;-61
2022/07/01 05:09:22;;;;;;;;;;;16.70;99.90;;;;;;5081668;27;36618;-60
2022/07/01 05:11:49;;;;;;;;;;;16.70;99.90;;;;;;5080509;27;38572;-61
2022/07/01 05:14:16;;;;;;;;;;;16.70;99.90;;;;;;5082483;27;38776;-60
2022/07/01 05:16:43;;;;;;;;;;;16.70;99.90;;;;;;5081087;27;35403;-61
2022/07/01 05:22:01;;;;;;;;;;;16.80;99.90;;;;;;5081269;27;40832;-60
2022/07/01 05:24:30;;;;;;;;;;;16.80;99.90;;;;;;5082217;28;36641;-61
2022/07/01 05:26:57;;;;;;;;;;;16.80;99.90;;;;;;5081718;27;35698;-60
2022/07/01 05:29:24;;;;;;;;;;;16.80;99.90;;;;;;5080834;27;37754;-60
2022/07/01 05:31:51;;;;;;;;;;;16.80;99.90;;;;;;5077847;27;37394;-61
2022/07/01 05:34:18;;;;;;;;;;;16.80;99.90;;;;;;5077694;27;37037;-60
2022/07/01 05:36:46;;;;;;;;;;;16.80;99.90;;;;;;5079061;27;35100;-61
2022/07/01 05:39:14;;;;;;;;;;;16.90;99.90;;;;;;5079933;27;37836;-60
2022/07/01 05:41:41;;;;;;;;;;;16.90;99.90;;;;;;5080539;27;40340;-60
2022/07/01 05:44:08;;;;;;;;;;;16.90;99.90;;;;;;5079428;27;37239;-60
2022/07/01 05:46:36;;;;;;;;;;;16.90;99.90;;;;;;5078842;27;36294;-60
2022/07/01 05:49:03;;;;;;;;;;;16.90;99.90;;;;;;5080274;27;37592;-60
2022/07/01 05:51:30;;;;;;;;;;;16.90;99.90;;;;;;5080673;27;38812;-60
2022/07/01 05:53:57;;;;;;;;;;;17.00;99.90;;;;;;5080627;27;37668;-60
2022/07/01 05:56:26;;;;;;;;;;;17.00;99.90;;;;;;5081972;27;34231;-60
2022/07/01 05:58:54;;;;;;;;;;;17.00;99.90;;;;;;5078456;27;36391;-60
2022/07/01 06:01:21;;;;;;;;;;;17.10;99.90;;;;;;5078688;27;37254;-60
2022/07/01 06:03:48;;;;;;;;;;;17.10;99.90;;;;;;5079986;27;38166;-60
2022/07/01 06:06:15;;;;;;;;;;;17.10;99.90;;;;;;5080137;27;35933;-60
2022/07/01 06:08:42;;;;;;;;;;;17.10;99.90;;;;;;5078878;27;38976;-60
2022/07/01 06:11:09;;;;;;;;;;;17.10;99.90;;;;;;5079436;27;37889;-59
2022/07/01 06:13:37;;;;;;;;;;;17.20;99.90;;;;;;5077684;27;37583;-60
2022/07/01 06:16:05;;;;;;;;;;;17.20;99.90;;;;;;5081679;27;36506;-60
2022/07/01 06:18:32;;;;;;;;;;;17.30;99.90;;;;;;5080143;27;37618;-60
2022/07/01 06:20:59;;;;;;;;;;;17.20;99.90;;;;;;5079676;27;40299;-60
2022/07/01 06:23:26;;;;;;;;;;;17.30;99.90;;;;;;5081125;27;38745;-60
2022/07/01 06:25:53;;;;;;;;;;;17.30;99.90;;;;;;5079697;27;37032;-60
2022/07/01 06:28:20;;;;;;;;;;;17.30;99.90;;;;;;5079630;28;39164;-60
2022/07/01 06:30:49;;;;;;;;;;;17.40;99.90;;;;;;5082028;27;40169;-60
2022/07/01 06:33:16;;;;;;;;;;;17.40;99.90;;;;;;5082924;27;37880;-60
2022/07/01 06:35:43;;;;;;;;;;;17.40;99.90;;;;;;5083049;27;36262;-60
2022/07/01 06:38:10;;;;;;;;;;;17.40;99.90;;;;;;5084172;27;39439;-60
2022/07/01 06:40:37;;;;;;;;;;;17.50;99.90;;;;;;5084483;27;39695;-60
2022/07/01 06:43:04;;;;;;;;;;;17.50;99.90;;;;;;5086139;27;37809;-60
2022/07/01 06:45:31;;;;;;;;;;;17.50;99.90;;;;;;5085093;27;36867;-60
2022/07/01 06:48:02;;;;;;;;;;;17.50;99.90;;;;;;5084714;27;36429;-60
2022/07/01 06:50:32;;;;;;;;;;;17.50;99.90;;;;;;5082814;27;38515;-60
2022/07/01 06:52:59;;;;;;;;;;;17.50;99.90;;;;;;5083581;28;38408;-60
2022/07/01 06:55:26;;;;;;;;;;;17.60;99.90;;;;;;5083484;27;37273;-60
2022/07/01 06:57:53;;;;;;;;;;;17.60;99.90;;;;;;5083793;27;37705;-60
2022/07/01 07:00:20;;;;;;;;;;;17.60;99.90;;;;;;5084477;27;40949;-60
2022/07/01 07:02:47;;;;;;;;;;;17.60;99.90;;;;;;5084363;27;37424;-59
2022/07/01 07:05:16;;;;;;;;;;;17.60;99.90;;;;;;5085219;27;36743;-60
2022/07/01 07:07:43;;;;;;;;;;;17.60;99.90;;;;;;5084816;27;37855;-60
2022/07/01 07:10:10;;;;;;;;;;;17.60;99.90;;;;;;5082254;27;39573;-60
2022/07/01 07:12:37;;;;;;;;;;;17.60;99.90;;;;;;5085144;27;37961;-60
2022/07/01 07:15:05;;;;;;;;;;;17.60;99.90;;;;;;5085734;27;36526;-60
2022/07/01 07:17:32;;;;;;;;;;;17.60;99.90;;;;;;5084599;27;37543;-60
2022/07/01 07:19:59;;;;;;;;;;;17.60;99.90;;;;;;5085167;27;38316;-60
2022/07/01 07:22:27;;;;;;;;;;;17.60;99.90;;;;;;5084328;27;37370;-60
2022/07/01 07:24:54;;;;;;;;;;;17.60;99.90;;;;;;5085951;27;36423;-60
2022/07/01 07:27:21;;;;;;;;;;;17.60;99.90;;;;;;5084599;27;38537;-60
2022/07/01 07:29:48;;;;;;;;;;;17.60;99.90;;;;;;5080282;28;38180;-60
2022/07/01 07:32:15;;;;;;;;;;;17.70;99.90;;;;;;5085119;27;38224;-60
2022/07/01 07:34:42;;;;;;;;;;;17.70;99.90;;;;;;5085554;27;36225;-60
2022/07/01 07:37:10;;;;;;;;;;;17.70;99.90;;;;;;5082850;27;37651;-60
2022/07/01 07:39:38;;;;;;;;;;;17.70;99.90;;;;;;5083144;27;37217;-60
2022/07/01 07:42:05;;;;;;;;;;;17.70;99.90;;;;;;5083116;28;37450;-60
2022/07/01 07:44:32;;;;;;;;;;;17.70;99.90;;;;;;5083282;27;36282;-59
2022/07/01 07:47:00;;;;;;;;;;;17.70;99.90;;;;;;5081713;27;36970;-60
2022/07/01 07:49:27;;;;;;;;;;;17.70;99.90;;;;;;5083547;28;38247;-60
2022/07/01 07:51:54;;;;;;;;;;;17.80;99.90;;;;;;5081273;28;38293;-59
2022/07/01 07:54:21;;;;;;;;;;;17.80;99.90;;;;;;5081994;28;36641;-60
2022/07/01 07:56:49;;;;;;;;;;;17.80;99.90;;;;;;5081891;27;38281;-60
2022/07/01 07:59:17;;;;;;;;;;;17.80;99.90;;;;;;5083549;27;38234;-60
2022/07/01 08:01:44;;;;;;;;;;;17.90;99.90;;;;;;5082193;28;37659;-59
2022/07/01 08:04:11;;;;;;;;;;;17.90;99.90;;;;;;5082314;27;37608;-60
2022/07/01 08:06:38;;;;;;;;;;;17.90;99.90;;;;;;5080614;27;37083;-60
2022/07/01 08:09:06;;;;;;;;;;;18.10;99.90;;;;;;5080288;28;38209;-60
2022/07/01 08:11:33;;;;;;;;;;;18.20;99.90;;;;;;5081856;27;37763;-60
2022/07/01 08:14:01;;;;;;;;;;;18.30;99.90;;;;;;5083814;27;35984;-60
2022/07/01 08:16:28;;;;;;;;;;;18.40;99.90;;;;;;5083224;27;38174;-60
2022/07/01 08:18:55;;;;;;;;;;;18.60;99.90;;;;;;5083135;27;39834;-59
2022/07/01 08:21:22;;;;;;;;;;;18.70;99.90;;;;;;5083752;27;36714;-60
2022/07/01 08:23:49;;;;;;;;;;;18.70;99.90;;;;;;5084287;27;36258;-60
2022/07/01 08:26:17;;;;;;;;;;;18.70;99.90;;;;;;5084265;27;36648;-60
2022/07/01 08:28:45;;;;;;;;;;;18.70;99.90;;;;;;5081052;27;41117;-60
2022/07/01 08:31:13;;;;;;;;;;;18.70;99.90;;;;;;5082709;27;37617;-60
2022/07/01 08:33:41;;;;;;;;;;;18.70;99.90;;;;;;5082850;28;37302;-60
2022/07/01 08:36:08;;;;;;;;;;;18.60;99.90;;;;;;5081918;28;38316;-60
2022/07/01 08:38:36;;;;;;;;;;;18.70;99.90;;;;;;5080397;27;39320;-60
2022/07/01 08:41:04;;;;;;;;;;;18.80;99.90;;;;;;5081677;27;37345;-60
2022/07/01 08:43:31;;;;;;;;;;;18.90;99.90;;;;;;5079102;28;34985;-60
2022/07/01 08:46:01;;;;;;;;;;;19.10;99.90;;;;;;5081355;27;39609;-60
2022/07/01 08:48:29;;;;;;;;;;;19.10;99.90;;;;;;5083100;28;38108;-60
2022/07/01 08:50:57;;;;;;;;;;;19.30;99.90;;;;;;5083375;27;38020;-60
2022/07/01 08:53:24;;;;;;;;;;;19.40;99.90;;;;;;5082595;27;37652;-60
2022/07/01 08:58:36;;;;;;;;;;;19.70;99.90;;;;;;5080461;27;39286;-60
2022/07/01 09:01:13;;;;;;;;;;;19.90;99.90;;;;;;5082133;27;39257;-60
2022/07/01 09:03:41;;;;;;;;;;;19.90;99.90;;;;;;5083102;27;38175;-60
2022/07/01 09:06:12;;;;;;;;;;;19.90;99.90;;;;;;5080155;27;37609;-60
2022/07/01 09:08:39;;;;;;;;;;;19.90;99.90;;;;;;5081736;27;38118;-60
2022/07/01 09:11:11;;;;;;;;;;;20.10;99.90;;;;;;5082023;27;37533;-60
2022/07/01 09:13:38;;;;;;;;;;;20.20;99.90;;;;;;5082794;27;35253;-60
2022/07/01 09:16:11;;;;;;;;;;;20.40;99.90;;;;;;5082662;27;37903;-60
2022/07/01 09:18:38;;;;;;;;;;;20.50;99.90;;;;;;5084176;27;37836;-60
2022/07/01 09:21:09;;;;;;;;;;;20.50;99.90;;;;;;5083414;27;38126;-60
2022/07/01 09:23:37;;;;;;;;;;;20.30;99.90;;;;;;5081848;28;36117;-60
2022/07/01 09:26:04;;;;;;;;;;;20.30;99.90;;;;;;5083493;27;37540;-60
2022/07/01 09:28:31;;;;;;;;;;;20.20;99.90;;;;;;5081952;27;38939;-60
2022/07/01 09:30:59;;;;;;;;;;;20.30;99.90;;;;;;5080991;27;36424;-60
2022/07/01 09:33:26;;;;;;;;;;;20.20;99.90;;;;;;5082783;27;40112;-60
2022/07/01 09:35:54;;;;;;;;;;;20.10;99.90;;;;;;5081898;27;38243;-60
2022/07/01 09:38:24;;;;;;;;;;;20.10;99.90;;;;;;5081297;27;38668;-60
2022/07/01 09:40:54;;;;;;;;;;;20.10;99.90;;;;;;5082284;27;36889;-60
2022/07/01 09:43:23;;;;;;;;;;;20.20;99.90;;;;;;5081121;27;37431;-60
2022/07/01 09:45:51;;;;;;;;;;;20.30;99.90;;;;;;5081579;27;38364;-60
2022/07/01 09:48:18;;;;;;;;;;;20.30;99.90;;;;;;5082295;27;38255;-60
2022/07/01 09:50:45;;;;;;;;;;;20.40;99.90;;;;;;5081406;27;37074;-60
2022/07/01 09:53:13;;;;;;;;;;;20.50;99.90;;;;;;5080491;27;37055;-60
2022/07/01 09:55:41;;;;;;;;;;;20.70;99.90;;;;;;5081462;27;36440;-59
2022/07/01 09:58:08;;;;;;;;;;;20.70;99.90;;;;;;5081364;27;36884;-60
2022/07/01 10:00:36;;;;;;;;;;;20.70;99.90;;;;;;5080780;27;37513;-60
2022/07/01 10:03:03;;;;;;;;;;;20.60;99.80;;;;;;5081293;28;36415;-60
2022/07/01 10:05:32;;;;;;;;;;;20.50;99.70;;;;;;5081242;27;38083;-60
2022/07/01 10:08:06;;;;;;;;;;;20.50;99.90;;;;;;5081593;27;37802;-60
2022/07/01 10:10:39;;;;;;;;;;;20.60;99.90;;;;;;5080741;27;37743;-60
2022/07/01 10:13:08;;;;;;;;;;;20.70;99.90;;;;;;5080686;27;36937;-60
2022/07/01 10:15:36;;;;;;;;;;;20.70;99.50;;;;;;5081519;27;37786;-60
2022/07/01 10:18:03;;;;;;;;;;;20.80;99.60;;;;;;5081299;27;39026;-60
2022/07/01 10:20:31;;;;;;;;;;;20.90;99.80;;;;;;5081362;28;37064;-60
2022/07/01 10:23:01;;;;;;;;;;;20.90;99.90;;;;;;5082237;27;36584;-60
2022/07/01 10:25:32;;;;;;;;;;;21.00;99.50;;;;;;5082185;27;37433;-60
2022/07/01 10:28:18;;;;;;;;;;;20.90;99.70;;;;;;5081032;27;38338;-60
2022/07/01 10:30:53;;;;;;;;;;;21.00;99.70;;;;;;5080249;27;37968;-60
2022/07/01 10:33:41;;;;;;;;;;;21.10;98.30;;;;;;5081378;28;37627;-60
2022/07/01 10:36:09;;;;;;;;;;;21.00;98.30;;;;;;5077698;27;38438;-60
2022/07/01 10:38:56;;;;;;;;;;;20.90;99.00;;;;;;5080047;28;38354;-60
2022/07/01 10:41:24;;;;;;;;;;;20.80;98.90;;;;;;5080767;27;38846;-60
2022/07/01 10:43:51;;;;;;;;;;;20.80;99.10;;;;;;5080800;27;35882;-60
2022/07/01 10:46:33;;;;;;;;;;;20.90;99.60;;;;;;5080428;27;38437;-60
2022/07/01 10:49:01;;;;;;;;;;;20.90;99.30;;;;;;5081499;27;36283;-60
2022/07/01 10:51:43;;;;;;;;;;;20.90;99.30;;;;;;5080233;27;37377;-60
2022/07/01 10:54:10;;;;;;;;;;;20.90;98.80;;;;;;5080131;27;36400;-59
2022/07/01 10:56:39;;;;;;;;;;;20.80;98.10;;;;;;5081297;27;37899;-60
2022/07/01 10:59:06;;;;;;;;;;;20.70;98.20;;;;;;5080404;28;37119;-60
2022/07/01 11:01:33;;;;;;;;;;;20.50;98.40;;;;;;5080912;27;37996;-60
2022/07/01 11:04:02;;;;;;;;;;;20.30;99.00;;;;;;5080843;27;35030;-60
2022/07/01 11:06:30;;;;;;;;;;;20.20;99.00;;;;;;5080360;27;37604;-60
2022/07/01 11:08:57;;;;;;;;;;;20.00;98.80;;;;;;5079358;28;38242;-60
2022/07/01 11:11:25;;;;;;;;;;;19.80;99.00;;;;;;5080141;27;37322;-60
2022/07/01 11:13:52;;;;;;;;;;;19.60;99.00;;;;;;5080767;27;36579;-59
2022/07/01 11:16:19;;;;;;;;;;;19.50;99.50;;;;;;5080536;27;37413;-60
2022/07/01 11:18:46;;;;;;;;;;;19.40;99.40;;;;;;5083254;27;39229;-60
2022/07/01 11:21:15;;;;;;;;;;;19.40;99.90;;;;;;5084604;27;40340;-59
2022/07/01 13:13:21;;;;;;;;;;;20.40;97.00;;;;;;5969905;22;38360;31
2022/07/01 13:16:17;;;;;;;;;;;20.40;97.60;;;;;;5185982;22;34156;-60
2022/07/01 13:21:21;;;;;;;;;;;20.70;97.40;;;;;;5312694;22;40789;-53
2022/07/01 13:26:26;;;;;;;;;;;20.90;96.10;;;;;;5386558;22;19939;-54
2022/07/01 13:28:54;;;;;;;;;;;21.00;96.00;;;;;;5091989;27;39733;-54
2022/07/01 13:31:21;;;;;;;;;;;21.10;95.50;;;;;;5091673;27;37950;-55
2022/07/01 13:33:48;;;;;;;;;;;21.00;95.70;;;;;;5091494;27;37160;-54
2022/07/01 13:36:15;;;;;;;;;;;21.00;95.10;;;;;;5092528;27;36505;-54
2022/07/01 13:38:43;;;;;;;;;;;20.80;95.00;;;;;;5091062;27;38728;-54
2022/07/01 13:41:10;;;;;;;;;;;20.80;95.40;;;;;;5092963;27;39515;-54
2022/07/01 13:43:37;;;;;;;;;;;20.80;95.10;;;;;;5092853;27;37506;-54
2022/07/01 13:46:06;;;;;;;;;;;20.70;96.10;;;;;;5093280;27;34834;-60
2022/07/01 13:48:33;;;;;;;;;;;20.70;95.10;;;;;;5093906;27;38008;-60
2022/07/01 13:51:00;;;;;;;;;;;20.70;96.00;;;;;;5092336;27;38298;-60
2022/07/01 13:53:27;;;;;;;;;;;20.70;95.50;;;;;;5093577;27;40368;-60
2022/07/01 13:55:54;;;;;;;;;;;20.70;94.40;;;;;;5093207;27;36279;-60
2022/07/01 13:58:22;;;;;;;;;;;20.60;95.00;;;;;;5093320;27;39029;-60
2022/07/01 14:00:49;;;;;;;;;;;20.50;96.20;;;;;;5091941;27;38644;-60
2022/07/01 14:03:17;;;;;;;;;;;20.60;96.70;;;;;;5093820;27;37762;-60
2022/07/01 14:05:44;;;;;;;;;;;20.60;96.10;;;;;;5093839;27;37695;-59
2022/07/01 14:08:11;;;;;;;;;;;20.70;93.40;;;;;;5092913;27;37856;-60
2022/07/01 14:10:38;;;;;;;;;;;20.70;93.90;;;;;;5092047;27;39345;-59
2022/07/01 14:13:05;;;;;;;;;;;20.70;94.00;;;;;;5093174;27;37625;-60
2022/07/01 14:15:32;;;;;;;;;;;20.70;93.70;;;;;;5093929;27;35816;-59
2022/07/01 14:17:59;;;;;;;;;;;20.60;93.40;;;;;;5092571;27;38662;-53
2022/07/01 14:20:28;;;;;;;;;;;20.70;94.00;;;;;;5092752;27;38161;-54
2022/07/01 14:22:55;;;;;;;;;;;20.70;94.00;;;;;;5092534;27;37881;-53
2022/07/01 14:25:22;;;;;;;;;;;20.70;94.00;;;;;;5090495;27;36178;-54
2022/07/01 14:27:49;;;;;;;;;;;20.70;93.30;;;;;;5081280;27;37462;-54
2022/07/01 14:30:17;;;;;;;;;;;20.60;92.30;;;;;;5080519;27;40561;-54
2022/07/01 14:32:44;;;;;;;;;;;20.60;91.70;;;;;;5079693;27;36510;-54
2022/07/01 14:35:11;;;;;;;;;;;20.60;91.50;;;;;;5080492;27;37761;-54
2022/07/01 14:37:39;;;;;;;;;;;20.50;91.50;;;;;;5080511;27;37653;-54
2022/07/01 14:40:07;;;;;;;;;;;20.50;91.30;;;;;;5080788;27;38414;-54
2022/07/01 14:42:34;;;;;;;;;;;20.50;92.10;;;;;;5080893;27;39194;-60
2022/07/01 14:45:01;;;;;;;;;;;20.50;92.80;;;;;;5080924;27;37645;-60
2022/07/01 14:47:29;;;;;;;;;;;20.60;93.50;;;;;;5080230;27;37610;-60
2022/07/01 14:49:57;;;;;;;;;;;20.60;93.70;;;;;;5081981;27;38009;-59
2022/07/01 14:52:24;;;;;;;;;;;20.70;93.70;;;;;;5083765;27;38450;-59
2022/07/01 14:54:53;;;;;;;;;;;20.70;93.80;;;;;;5084406;28;36863;-59
2022/07/01 14:57:20;;;;;;;;;;;20.80;93.80;;;;;;5084239;27;37467;-60
2022/07/01 14:59:47;;;;;;;;;;;20.80;92.80;;;;;;5082433;27;38805;-60
2022/07/01 15:02:14;;;;;;;;;;;20.70;92.80;;;;;;5080947;27;37576;-60
2022/07/01 15:04:41;;;;;;;;;;;20.70;93.20;;;;;;5081278;27;36109;-60
2022/07/01 15:07:09;;;;;;;;;;;20.70;93.30;;;;;;5082467;27;37982;-60
2022/07/01 15:09:36;;;;;;;;;;;20.70;92.70;;;;;;5082058;27;39825;-60
2022/07/01 15:12:04;;;;;;;;;;;20.70;92.80;;;;;;5082504;28;39109;-60
2022/07/01 15:14:32;;;;;;;;;;;20.60;93.80;;;;;;5081776;27;36824;-60
2022/07/01 15:16:59;;;;;;;;;;;20.60;92.50;;;;;;5083225;27;39255;-59
2022/07/01 15:19:26;;;;;;;;;;;20.50;91.60;;;;;;5084738;27;37118;-60
2022/07/01 15:21:54;;;;;;;;;;;20.50;91.60;;;;;;5085458;27;37602;-60
2022/07/01 15:24:21;;;;;;;;;;;20.50;92.20;;;;;;5083430;27;37834;-60
2022/07/01 15:26:48;;;;;;;;;;;20.40;92.50;;;;;;5073844;28;37318;-59
2022/07/01 15:29:16;;;;;;;;;;;20.40;92.50;;;;;;5081035;27;38648;-60
2022/07/01 15:31:43;;;;;;;;;;;20.30;93.10;;;;;;5079646;27;38925;-60
2022/07/01 15:34:11;;;;;;;;;;;20.30;93.50;;;;;;5081031;28;35850;-60
2022/07/01 15:36:38;;;;;;;;;;;20.30;93.10;;;;;;5081559;28;37900;-60
2022/07/01 15:39:05;;;;;;;;;;;20.30;93.20;;;;;;5080449;27;40165;-60
2022/07/01 15:41:33;;;;;;;;;;;20.20;93.00;;;;;;5078844;27;37402;-60
2022/07/01 15:44:00;;;;;;;;;;;20.20;93.50;;;;;;5079552;27;36338;-60
2022/07/01 15:46:28;;;;;;;;;;;20.10;93.90;;;;;;5081709;28;37860;-60
2022/07/01 15:48:55;;;;;;;;;;;20.10;94.30;;;;;;5081660;28;38405;-60
2022/07/01 15:51:24;;;;;;;;;;;20.00;93.30;;;;;;5081536;28;37801;-60
2022/07/01 15:53:51;;;;;;;;;;;19.90;92.70;;;;;;5080229;27;36494;-60
2022/07/01 15:56:18;;;;;;;;;;;19.90;93.60;;;;;;5080907;27;38122;-60
2022/07/01 15:58:45;;;;;;;;;;;19.80;93.50;;;;;;5080354;27;38611;-60
2022/07/01 16:01:12;;;;;;;;;;;19.90;94.30;;;;;;5080629;27;37489;-60
2022/07/01 16:03:44;;;;;;;;;;;19.80;93.90;;;;;;5078529;27;36529;-60
2022/07/01 16:06:12;;;;;;;;;;;19.80;94.10;;;;;;5076820;27;38086;-59
2022/07/01 16:08:41;;;;;;;;;;;19.80;94.60;;;;;;5079514;27;38622;-54
2022/07/01 16:11:09;;;;;;;;;;;19.80;94.90;;;;;;5080148;27;38045;-60
2022/07/01 16:13:38;;;;;;;;;;;19.80;94.70;;;;;;5077960;27;37189;-60
2022/07/01 16:16:06;;;;;;;;;;;19.80;95.10;;;;;;5078988;27;38224;-53
2022/07/01 16:18:33;;;;;;;;;;;19.70;94.90;;;;;;5080697;27;38229;-54
2022/07/01 16:21:03;;;;;;;;;;;19.70;94.50;;;;;;5075496;27;37362;-54